sensor_id;sensor_type;location;lat;lon;timestamp;temperature;humidity
40848;DHT22;26570;50.962;5.340;2023-07-29T00:01:18;20.80;99.90
40848;DHT22;26570;50.962;5.340;2023-07-29T00:04:03;20.70;99.90
40848;DHT22;26570;50.962;5.340;2023-07-29T00:06:49;20.70;99.90
40848;DHT22;26570;50.962;5.340;2023-07-29T00:09:34;20.70;99.90
40848;DHT22;26570;50.962;5.340;2023-07-29T00:12:22;20.60;99.90
40848;DHT22;26570;50.962;5.340;2023-07-29T00:15:08;20.70;99.90
40848;DHT22;26570;50.962;5.340;2023-07-29T00:17:54;20.80;99.90
40848;DHT22;26570;50.962;5.340;2023-07-29T00:20:40;20.80;99.90
40848;DHT22;26570;50.962;5.340;2023-07-29T00:23:25;20.80;99.90
40848;DHT22;26570;50.962;5.340;2023-07-29T00:26:11;20.80;99.90
40848;DHT22;26570;50.962;5.340;2023-07-29T00:28:56;20.80;99.90
40848;DHT22;26570;50.962;5.340;2023-07-29T00:31:42;20.80;99.90
40848;DHT22;26570;50.962;5.340;2023-07-29T00:34:28;20.80;99.90
40848;DHT22;26570;50.962;5.340;2023-07-29T00:37:14;20.80;99.90
40848;DHT22;26570;50.962;5.340;2023-07-29T00:40:22;20.90;99.90
40848;DHT22;26570;50.962;5.340;2023-07-29T00:43:11;20.80;99.90
40848;DHT22;26570;50.962;5.340;2023-07-29T00:45:57;20.90;99.90
40848;DHT22;26570;50.962;5.340;2023-07-29T00:48:42;20.80;99.90
40848;DHT22;26570;50.962;5.340;2023-07-29T00:51:54;20.90;99.90
40848;DHT22;26570;50.962;5.340;2023-07-29T00:54:40;20.90;99.90
40848;DHT22;26570;50.962;5.340;2023-07-29T00:57:26;21.00;99.90
40848;DHT22;26570;50.962;5.340;2023-07-29T01:00:13;21.00;99.90
40848;DHT22;26570;50.962;5.340;2023-07-29T01:02:59;21.30;99.90
40848;DHT22;26570;50.962;5.340;2023-07-29T01:11:55;21.10;99.90
40848;DHT22;26570;50.962;5.340;2023-07-29T01:17:36;21.00;99.90
40848;DHT22;26570;50.962;5.340;2023-07-29T01:20:26;20.80;99.90
40848;DHT22;26570;50.962;5.340;2023-07-29T01:23:16;20.80;99.90
40848;DHT22;26570;50.962;5.340;2023-07-29T01:26:05;20.90;99.90
40848;DHT22;26570;50.962;5.340;2023-07-29T01:28:51;20.80;99.90
40848;DHT22;26570;50.962;5.340;2023-07-29T01:31:45;20.90;99.90
40848;DHT22;26570;50.962;5.340;2023-07-29T01:35:08;20.90;99.90
40848;DHT22;26570;50.962;5.340;2023-07-29T01:38:18;21.00;99.90
40848;DHT22;26570;50.962;5.340;2023-07-29T01:41:09;20.90;99.90
40848;DHT22;26570;50.962;5.340;2023-07-29T01:43:56;20.90;99.90
40848;DHT22;26570;50.962;5.340;2023-07-29T01:47:06;20.80;99.90
40848;DHT22;26570;50.962;5.340;2023-07-29T01:49:51;20.70;99.90
40848;DHT22;26570;50.962;5.340;2023-07-29T01:53:00;20.80;99.90
40848;DHT22;26570;50.962;5.340;2023-07-29T01:55:45;20.90;99.90
40848;DHT22;26570;50.962;5.340;2023-07-29T01:58:56;21.00;99.90
40848;DHT22;26570;50.962;5.340;2023-07-29T02:01:44;20.80;99.90
40848;DHT22;26570;50.962;5.340;2023-07-29T02:04:31;20.70;99.90
40848;DHT22;26570;50.962;5.340;2023-07-29T02:07:20;20.50;99.90
40848;DHT22;26570;50.962;5.340;2023-07-29T02:10:28;20.40;99.90
40848;DHT22;26570;50.962;5.340;2023-07-29T02:13:14;20.40;99.90
40848;DHT22;26570;50.962;5.340;2023-07-29T02:15:59;20.40;99.90
40848;DHT22;26570;50.962;5.340;2023-07-29T02:18:48;20.10;99.90
40848;DHT22;26570;50.962;5.340;2023-07-29T02:21:34;20.10;99.90
40848;DHT22;26570;50.962;5.340;2023-07-29T02:24:19;20.20;99.90
40848;DHT22;26570;50.962;5.340;2023-07-29T02:27:06;20.10;99.90
40848;DHT22;26570;50.962;5.340;2023-07-29T02:29:52;20.00;99.90
40848;DHT22;26570;50.962;5.340;2023-07-29T02:32:38;20.00;99.90
40848;DHT22;26570;50.962;5.340;2023-07-29T02:35:23;20.00;99.90
40848;DHT22;26570;50.962;5.340;2023-07-29T02:38:31;19.70;99.90
40848;DHT22;26570;50.962;5.340;2023-07-29T02:41:20;19.80;99.90
40848;DHT22;26570;50.962;5.340;2023-07-29T02:44:05;19.80;99.90
40848;DHT22;26570;50.962;5.340;2023-07-29T02:46:51;19.70;99.90
40848;DHT22;26570;50.962;5.340;2023-07-29T02:49:37;19.70;99.90
40848;DHT22;26570;50.962;5.340;2023-07-29T02:52:22;19.70;99.90
40848;DHT22;26570;50.962;5.340;2023-07-29T02:55:08;19.60;99.90
40848;DHT22;26570;50.962;5.340;2023-07-29T02:57:54;19.60;99.90
40848;DHT22;26570;50.962;5.340;2023-07-29T03:00:39;19.50;99.90
40848;DHT22;26570;50.962;5.340;2023-07-29T03:03:27;19.40;99.90
40848;DHT22;26570;50.962;5.340;2023-07-29T03:10:28;19.70;99.90
40848;DHT22;26570;50.962;5.340;2023-07-29T03:13:13;19.40;99.90
40848;DHT22;26570;50.962;5.340;2023-07-29T03:19:17;19.20;99.90
40848;DHT22;26570;50.962;5.340;2023-07-29T03:22:02;19.10;99.90
40848;DHT22;26570;50.962;5.340;2023-07-29T03:24:48;19.00;99.90
40848;DHT22;26570;50.962;5.340;2023-07-29T03:27:33;19.00;99.90
40848;DHT22;26570;50.962;5.340;2023-07-29T03:30:22;19.00;99.90
40848;DHT22;26570;50.962;5.340;2023-07-29T03:33:08;19.20;99.90
40848;DHT22;26570;50.962;5.340;2023-07-29T03:35:53;19.10;99.90
40848;DHT22;26570;50.962;5.340;2023-07-29T03:38:38;19.10;99.90
40848;DHT22;26570;50.962;5.340;2023-07-29T03:41:25;18.90;99.90
40848;DHT22;26570;50.962;5.340;2023-07-29T03:44:10;19.00;99.90
40848;DHT22;26570;50.962;5.340;2023-07-29T03:46:56;19.10;99.90
40848;DHT22;26570;50.962;5.340;2023-07-29T03:49:41;18.90;99.90
40848;DHT22;26570;50.962;5.340;2023-07-29T03:52:49;18.90;99.90
40848;DHT22;26570;50.962;5.340;2023-07-29T03:55:35;18.70;99.90
40848;DHT22;26570;50.962;5.340;2023-07-29T03:58:52;18.80;99.90
40848;DHT22;26570;50.962;5.340;2023-07-29T04:01:38;18.60;99.90
40848;DHT22;26570;50.962;5.340;2023-07-29T04:04:23;18.60;99.90
40848;DHT22;26570;50.962;5.340;2023-07-29T04:07:09;18.60;99.90
40848;DHT22;26570;50.962;5.340;2023-07-29T04:09:55;18.60;99.90
40848;DHT22;26570;50.962;5.340;2023-07-29T04:12:41;18.50;99.90
40848;DHT22;26570;50.962;5.340;2023-07-29T04:15:26;18.50;99.90
40848;DHT22;26570;50.962;5.340;2023-07-29T04:18:12;18.40;99.90
40848;DHT22;26570;50.962;5.340;2023-07-29T04:20:57;18.50;99.90
40848;DHT22;26570;50.962;5.340;2023-07-29T04:23:43;18.60;99.90
40848;DHT22;26570;50.962;5.340;2023-07-29T04:26:29;18.60;99.90
40848;DHT22;26570;50.962;5.340;2023-07-29T04:29:33;18.60;99.90
40848;DHT22;26570;50.962;5.340;2023-07-29T04:32:21;18.60;99.90
40848;DHT22;26570;50.962;5.340;2023-07-29T04:35:06;18.60;99.90
40848;DHT22;26570;50.962;5.340;2023-07-29T04:37:55;18.50;99.90
40848;DHT22;26570;50.962;5.340;2023-07-29T04:40:41;18.60;99.90
40848;DHT22;26570;50.962;5.340;2023-07-29T04:43:49;18.50;99.90
40848;DHT22;26570;50.962;5.340;2023-07-29T04:46:36;18.70;99.90
40848;DHT22;26570;50.962;5.340;2023-07-29T04:49:21;18.70;99.90
40848;DHT22;26570;50.962;5.340;2023-07-29T04:52:07;18.70;99.90
40848;DHT22;26570;50.962;5.340;2023-07-29T04:54:52;18.80;99.90
40848;DHT22;26570;50.962;5.340;2023-07-29T04:57:38;18.70;99.90
40848;DHT22;26570;50.962;5.340;2023-07-29T05:00:24;18.70;99.90
40848;DHT22;26570;50.962;5.340;2023-07-29T05:03:09;18.70;99.90
40848;DHT22;26570;50.962;5.340;2023-07-29T05:06:36;18.70;99.90
40848;DHT22;26570;50.962;5.340;2023-07-29T05:09:25;18.80;99.90
40848;DHT22;26570;50.962;5.340;2023-07-29T05:12:33;18.70;99.90
40848;DHT22;26570;50.962;5.340;2023-07-29T05:15:18;18.70;99.90
40848;DHT22;26570;50.962;5.340;2023-07-29T05:18:06;18.70;99.90
40848;DHT22;26570;50.962;5.340;2023-07-29T05:20:50;18.80;99.90
40848;DHT22;26570;50.962;5.340;2023-07-29T05:23:37;18.80;99.90
40848;DHT22;26570;50.962;5.340;2023-07-29T05:26:22;18.70;99.90
40848;DHT22;26570;50.962;5.340;2023-07-29T05:29:10;18.70;99.90
40848;DHT22;26570;50.962;5.340;2023-07-29T05:31:55;18.80;99.90
40848;DHT22;26570;50.962;5.340;2023-07-29T05:34:43;19.00;99.90
40848;DHT22;26570;50.962;5.340;2023-07-29T05:37:27;19.10;99.90
40848;DHT22;26570;50.962;5.340;2023-07-29T05:40:12;19.20;99.90
40848;DHT22;26570;50.962;5.340;2023-07-29T05:42:59;19.20;99.90
40848;DHT22;26570;50.962;5.340;2023-07-29T05:45:46;19.20;99.90
40848;DHT22;26570;50.962;5.340;2023-07-29T05:48:31;19.40;99.90
40848;DHT22;26570;50.962;5.340;2023-07-29T05:51:19;19.40;99.90
40848;DHT22;26570;50.962;5.340;2023-07-29T05:54:05;19.40;99.90
40848;DHT22;26570;50.962;5.340;2023-07-29T05:56:50;19.50;99.90
40848;DHT22;26570;50.962;5.340;2023-07-29T05:59:34;19.40;99.90
40848;DHT22;26570;50.962;5.340;2023-07-29T06:02:22;19.50;99.90
40848;DHT22;26570;50.962;5.340;2023-07-29T06:05:31;19.60;99.90
40848;DHT22;26570;50.962;5.340;2023-07-29T06:08:17;19.80;99.90
40848;DHT22;26570;50.962;5.340;2023-07-29T06:11:02;20.00;99.90
40848;DHT22;26570;50.962;5.340;2023-07-29T06:13:50;20.00;99.90
40848;DHT22;26570;50.962;5.340;2023-07-29T06:16:38;19.90;99.90
40848;DHT22;26570;50.962;5.340;2023-07-29T06:19:22;20.00;99.90
40848;DHT22;26570;50.962;5.340;2023-07-29T06:22:10;20.10;99.90
40848;DHT22;26570;50.962;5.340;2023-07-29T06:24:57;20.30;99.90
40848;DHT22;26570;50.962;5.340;2023-07-29T06:27:42;20.70;99.90
40848;DHT22;26570;50.962;5.340;2023-07-29T06:30:27;20.90;99.90
40848;DHT22;26570;50.962;5.340;2023-07-29T06:33:12;21.00;99.90
40848;DHT22;26570;50.962;5.340;2023-07-29T06:35:59;21.20;99.90
40848;DHT22;26570;50.962;5.340;2023-07-29T06:38:44;21.80;99.90
40848;DHT22;26570;50.962;5.340;2023-07-29T06:41:30;22.00;99.90
40848;DHT22;26570;50.962;5.340;2023-07-29T06:44:14;22.10;99.90
40848;DHT22;26570;50.962;5.340;2023-07-29T06:46:59;23.10;99.90
40848;DHT22;26570;50.962;5.340;2023-07-29T06:49:47;24.90;99.90
40848;DHT22;26570;50.962;5.340;2023-07-29T06:52:32;26.30;99.90
40848;DHT22;26570;50.962;5.340;2023-07-29T06:55:17;27.60;99.90
40848;DHT22;26570;50.962;5.340;2023-07-29T06:58:13;28.10;99.90
40848;DHT22;26570;50.962;5.340;2023-07-29T07:00:57;28.40;99.90
40848;DHT22;26570;50.962;5.340;2023-07-29T07:04:01;27.90;99.90
40848;DHT22;26570;50.962;5.340;2023-07-29T07:07:10;27.60;99.90
40848;DHT22;26570;50.962;5.340;2023-07-29T07:09:58;27.70;99.90
40848;DHT22;26570;50.962;5.340;2023-07-29T07:12:49;28.40;99.90
40848;DHT22;26570;50.962;5.340;2023-07-29T07:15:34;28.30;99.90
40848;DHT22;26570;50.962;5.340;2023-07-29T07:18:39;28.10;99.90
40848;DHT22;26570;50.962;5.340;2023-07-29T07:21:36;27.20;99.90
40848;DHT22;26570;50.962;5.340;2023-07-29T07:24:22;27.00;99.90
40848;DHT22;26570;50.962;5.340;2023-07-29T07:27:08;26.70;99.90
40848;DHT22;26570;50.962;5.340;2023-07-29T07:30:01;26.00;99.90
40848;DHT22;26570;50.962;5.340;2023-07-29T07:32:50;25.40;99.90
40848;DHT22;26570;50.962;5.340;2023-07-29T07:35:35;24.60;99.90
40848;DHT22;26570;50.962;5.340;2023-07-29T07:38:20;24.10;99.90
40848;DHT22;26570;50.962;5.340;2023-07-29T07:41:06;23.70;99.90
40848;DHT22;26570;50.962;5.340;2023-07-29T07:43:51;23.90;99.90
40848;DHT22;26570;50.962;5.340;2023-07-29T07:47:07;24.90;99.90
40848;DHT22;26570;50.962;5.340;2023-07-29T07:49:53;25.80;99.90
40848;DHT22;26570;50.962;5.340;2023-07-29T07:52:42;25.70;99.90
40848;DHT22;26570;50.962;5.340;2023-07-29T07:55:30;25.40;99.90
40848;DHT22;26570;50.962;5.340;2023-07-29T07:58:19;24.90;99.90
40848;DHT22;26570;50.962;5.340;2023-07-29T08:01:08;24.50;99.90
40848;DHT22;26570;50.962;5.340;2023-07-29T08:04:06;23.90;99.90
40848;DHT22;26570;50.962;5.340;2023-07-29T08:06:55;23.50;99.90
40848;DHT22;26570;50.962;5.340;2023-07-29T08:09:42;23.10;99.90
40848;DHT22;26570;50.962;5.340;2023-07-29T08:12:27;22.90;99.90
40848;DHT22;26570;50.962;5.340;2023-07-29T08:15:13;22.80;99.90
40848;DHT22;26570;50.962;5.340;2023-07-29T08:17:58;22.70;99.90
40848;DHT22;26570;50.962;5.340;2023-07-29T08:20:57;22.70;99.90
40848;DHT22;26570;50.962;5.340;2023-07-29T08:23:42;22.80;99.90
40848;DHT22;26570;50.962;5.340;2023-07-29T08:26:27;23.00;99.90
40848;DHT22;26570;50.962;5.340;2023-07-29T08:29:13;23.00;99.90
40848;DHT22;26570;50.962;5.340;2023-07-29T08:32:01;23.10;99.90
40848;DHT22;26570;50.962;5.340;2023-07-29T08:34:48;23.10;99.90
40848;DHT22;26570;50.962;5.340;2023-07-29T08:38:08;23.10;99.90
40848;DHT22;26570;50.962;5.340;2023-07-29T08:40:58;23.50;99.90
40848;DHT22;26570;50.962;5.340;2023-07-29T08:44:09;23.70;99.90
40848;DHT22;26570;50.962;5.340;2023-07-29T08:46:55;24.70;99.90
40848;DHT22;26570;50.962;5.340;2023-07-29T08:49:46;25.30;99.90
40848;DHT22;26570;50.962;5.340;2023-07-29T08:52:32;25.40;99.90
40848;DHT22;26570;50.962;5.340;2023-07-29T08:55:24;26.30;99.90
40848;DHT22;26570;50.962;5.340;2023-07-29T08:58:13;26.80;99.90
40848;DHT22;26570;50.962;5.340;2023-07-29T09:01:20;26.70;99.90
40848;DHT22;26570;50.962;5.340;2023-07-29T09:04:17;27.10;99.90
40848;DHT22;26570;50.962;5.340;2023-07-29T09:07:03;27.40;99.90
40848;DHT22;26570;50.962;5.340;2023-07-29T09:09:49;28.30;99.90
40848;DHT22;26570;50.962;5.340;2023-07-29T09:12:36;28.50;99.90
40848;DHT22;26570;50.962;5.340;2023-07-29T09:15:39;28.40;99.90
40848;DHT22;26570;50.962;5.340;2023-07-29T09:18:30;28.30;99.90
40848;DHT22;26570;50.962;5.340;2023-07-29T09:21:17;27.60;99.90
40848;DHT22;26570;50.962;5.340;2023-07-29T09:24:05;27.60;99.90
40848;DHT22;26570;50.962;5.340;2023-07-29T09:26:55;27.70;99.90
40848;DHT22;26570;50.962;5.340;2023-07-29T09:29:58;27.40;99.90
40848;DHT22;26570;50.962;5.340;2023-07-29T09:32:44;27.20;99.90
40848;DHT22;26570;50.962;5.340;2023-07-29T09:35:31;26.70;99.90
40848;DHT22;26570;50.962;5.340;2023-07-29T09:38:38;26.50;99.90
40848;DHT22;26570;50.962;5.340;2023-07-29T09:41:26;26.10;99.90
40848;DHT22;26570;50.962;5.340;2023-07-29T09:44:25;25.70;99.90
40848;DHT22;26570;50.962;5.340;2023-07-29T09:47:18;25.40;99.90
40848;DHT22;26570;50.962;5.340;2023-07-29T09:50:09;25.00;99.90
40848;DHT22;26570;50.962;5.340;2023-07-29T09:52:57;25.30;99.90
40848;DHT22;26570;50.962;5.340;2023-07-29T09:55:47;25.60;99.90
40848;DHT22;26570;50.962;5.340;2023-07-29T09:58:39;25.80;99.90
40848;DHT22;26570;50.962;5.340;2023-07-29T10:01:40;25.90;99.90
40848;DHT22;26570;50.962;5.340;2023-07-29T10:04:26;26.30;99.90
40848;DHT22;26570;50.962;5.340;2023-07-29T10:07:24;26.90;99.90
40848;DHT22;26570;50.962;5.340;2023-07-29T10:10:28;27.50;99.90
40848;DHT22;26570;50.962;5.340;2023-07-29T10:13:14;27.40;99.90
40848;DHT22;26570;50.962;5.340;2023-07-29T10:15:59;27.10;99.90
40848;DHT22;26570;50.962;5.340;2023-07-29T10:18:47;26.90;99.90
40848;DHT22;26570;50.962;5.340;2023-07-29T10:21:33;26.80;99.90
40848;DHT22;26570;50.962;5.340;2023-07-29T10:24:25;26.90;99.90
40848;DHT22;26570;50.962;5.340;2023-07-29T10:30:28;26.90;99.90
40848;DHT22;26570;50.962;5.340;2023-07-29T10:33:33;26.90;99.90
40848;DHT22;26570;50.962;5.340;2023-07-29T10:36:19;26.60;99.90
40848;DHT22;26570;50.962;5.340;2023-07-29T10:39:07;26.70;99.90
40848;DHT22;26570;50.962;5.340;2023-07-29T10:42:03;26.90;99.90
40848;DHT22;26570;50.962;5.340;2023-07-29T10:44:51;27.30;99.90
40848;DHT22;26570;50.962;5.340;2023-07-29T10:47:37;27.70;99.90
40848;DHT22;26570;50.962;5.340;2023-07-29T10:50:29;27.90;99.90
40848;DHT22;26570;50.962;5.340;2023-07-29T10:53:44;27.80;99.90
40848;DHT22;26570;50.962;5.340;2023-07-29T10:56:30;27.90;99.90
40848;DHT22;26570;50.962;5.340;2023-07-29T11:02:01;26.90;99.90
40848;DHT22;26570;50.962;5.340;2023-07-29T11:04:59;26.70;99.90
40848;DHT22;26570;50.962;5.340;2023-07-29T11:07:49;26.10;99.90
40848;DHT22;26570;50.962;5.340;2023-07-29T11:10:43;25.90;99.90
40848;DHT22;26570;50.962;5.340;2023-07-29T11:13:47;25.50;99.90
40848;DHT22;26570;50.962;5.340;2023-07-29T11:16:33;25.30;99.90
40848;DHT22;26570;50.962;5.340;2023-07-29T11:19:19;24.90;99.90
40848;DHT22;26570;50.962;5.340;2023-07-29T11:22:05;25.10;99.90
40848;DHT22;26570;50.962;5.340;2023-07-29T11:24:51;24.90;99.90
40848;DHT22;26570;50.962;5.340;2023-07-29T11:27:43;24.70;99.90
40848;DHT22;26570;50.962;5.340;2023-07-29T11:30:28;24.80;99.90
40848;DHT22;26570;50.962;5.340;2023-07-29T11:33:38;24.90;99.90
40848;DHT22;26570;50.962;5.340;2023-07-29T11:36:24;25.00;99.90
40848;DHT22;26570;50.962;5.340;2023-07-29T11:39:10;25.00;99.90
40848;DHT22;26570;50.962;5.340;2023-07-29T11:42:12;24.50;99.90
40848;DHT22;26570;50.962;5.340;2023-07-29T11:45:09;24.00;99.90
40848;DHT22;26570;50.962;5.340;2023-07-29T11:47:54;23.70;99.90
40848;DHT22;26570;50.962;5.340;2023-07-29T11:50:50;23.50;99.90
40848;DHT22;26570;50.962;5.340;2023-07-29T11:53:39;23.60;99.90
40848;DHT22;26570;50.962;5.340;2023-07-29T11:56:43;23.60;99.90
40848;DHT22;26570;50.962;5.340;2023-07-29T11:59:28;23.50;99.90
40848;DHT22;26570;50.962;5.340;2023-07-29T12:02:34;23.50;99.90
40848;DHT22;26570;50.962;5.340;2023-07-29T12:05:28;23.50;99.90
40848;DHT22;26570;50.962;5.340;2023-07-29T12:08:14;23.50;99.90
40848;DHT22;26570;50.962;5.340;2023-07-29T12:11:02;23.50;99.90
40848;DHT22;26570;50.962;5.340;2023-07-29T12:14:13;23.30;99.90
40848;DHT22;26570;50.962;5.340;2023-07-29T12:17:06;23.10;99.90
40848;DHT22;26570;50.962;5.340;2023-07-29T12:19:55;23.20;99.90
40848;DHT22;26570;50.962;5.340;2023-07-29T12:22:41;23.40;99.90
40848;DHT22;26570;50.962;5.340;2023-07-29T12:25:39;23.50;99.90
40848;DHT22;26570;50.962;5.340;2023-07-29T12:28:25;23.30;99.90
40848;DHT22;26570;50.962;5.340;2023-07-29T12:31:11;23.40;99.90
40848;DHT22;26570;50.962;5.340;2023-07-29T12:34:00;23.10;99.90
40848;DHT22;26570;50.962;5.340;2023-07-29T12:36:49;22.90;99.90
40848;DHT22;26570;50.962;5.340;2023-07-29T12:40:28;23.00;99.90
40848;DHT22;26570;50.962;5.340;2023-07-29T12:43:17;22.60;99.90
40848;DHT22;26570;50.962;5.340;2023-07-29T12:46:03;22.40;99.90
40848;DHT22;26570;50.962;5.340;2023-07-29T12:48:53;22.30;99.90
40848;DHT22;26570;50.962;5.340;2023-07-29T12:51:45;22.60;99.90
40848;DHT22;26570;50.962;5.340;2023-07-29T12:54:35;22.60;99.90
40848;DHT22;26570;50.962;5.340;2023-07-29T12:57:24;23.10;99.90
40848;DHT22;26570;50.962;5.340;2023-07-29T13:00:10;23.30;99.90
40848;DHT22;26570;50.962;5.340;2023-07-29T13:03:12;23.60;99.90
40848;DHT22;26570;50.962;5.340;2023-07-29T13:06:00;24.00;99.90
40848;DHT22;26570;50.962;5.340;2023-07-29T13:09:03;24.40;99.90
40848;DHT22;26570;50.962;5.340;2023-07-29T13:12:19;24.60;99.90
40848;DHT22;26570;50.962;5.340;2023-07-29T13:15:08;24.30;99.90
40848;DHT22;26570;50.962;5.340;2023-07-29T13:18:09;24.20;99.90
40848;DHT22;26570;50.962;5.340;2023-07-29T13:20:56;24.10;99.90
40848;DHT22;26570;50.962;5.340;2023-07-29T13:23:41;24.10;99.90
40848;DHT22;26570;50.962;5.340;2023-07-29T13:26:39;23.70;99.90
40848;DHT22;26570;50.962;5.340;2023-07-29T13:29:28;23.50;99.90
40848;DHT22;26570;50.962;5.340;2023-07-29T13:32:14;23.50;99.90
40848;DHT22;26570;50.962;5.340;2023-07-29T13:35:00;23.60;99.90
40848;DHT22;26570;50.962;5.340;2023-07-29T13:37:48;23.40;99.90
40848;DHT22;26570;50.962;5.340;2023-07-29T13:40:34;23.20;99.90
40848;DHT22;26570;50.962;5.340;2023-07-29T13:43:23;22.90;99.90
40848;DHT22;26570;50.962;5.340;2023-07-29T13:46:09;22.70;99.90
40848;DHT22;26570;50.962;5.340;2023-07-29T13:48:55;22.40;99.90
40848;DHT22;26570;50.962;5.340;2023-07-29T13:51:59;22.40;99.90
40848;DHT22;26570;50.962;5.340;2023-07-29T13:54:46;22.10;99.90
40848;DHT22;26570;50.962;5.340;2023-07-29T13:57:32;22.10;99.90
40848;DHT22;26570;50.962;5.340;2023-07-29T14:00:17;22.40;99.90
40848;DHT22;26570;50.962;5.340;2023-07-29T14:03:03;22.90;99.90
40848;DHT22;26570;50.962;5.340;2023-07-29T14:05:51;23.40;99.90
40848;DHT22;26570;50.962;5.340;2023-07-29T14:08:38;23.80;99.90
40848;DHT22;26570;50.962;5.340;2023-07-29T14:11:25;23.90;99.90
40848;DHT22;26570;50.962;5.340;2023-07-29T14:14:26;24.10;99.90
40848;DHT22;26570;50.962;5.340;2023-07-29T14:17:11;24.40;99.90
40848;DHT22;26570;50.962;5.340;2023-07-29T14:20:00;24.70;99.90
40848;DHT22;26570;50.962;5.340;2023-07-29T14:22:48;25.00;99.90
40848;DHT22;26570;50.962;5.340;2023-07-29T14:29:04;25.60;99.90
40848;DHT22;26570;50.962;5.340;2023-07-29T14:31:53;25.50;99.90
40848;DHT22;26570;50.962;5.340;2023-07-29T14:34:55;25.70;99.90
40848;DHT22;26570;50.962;5.340;2023-07-29T14:37:43;25.70;99.90
40848;DHT22;26570;50.962;5.340;2023-07-29T14:40:29;26.00;99.90
40848;DHT22;26570;50.962;5.340;2023-07-29T14:43:17;26.10;99.90
40848;DHT22;26570;50.962;5.340;2023-07-29T14:46:03;26.00;99.90
40848;DHT22;26570;50.962;5.340;2023-07-29T14:48:48;25.90;99.90
40848;DHT22;26570;50.962;5.340;2023-07-29T14:51:37;25.90;99.90
40848;DHT22;26570;50.962;5.340;2023-07-29T14:54:25;26.20;99.90
40848;DHT22;26570;50.962;5.340;2023-07-29T14:57:14;26.50;99.90
40848;DHT22;26570;50.962;5.340;2023-07-29T15:00:00;26.30;99.90
40848;DHT22;26570;50.962;5.340;2023-07-29T15:02:49;26.00;99.90
40848;DHT22;26570;50.962;5.340;2023-07-29T15:05:38;25.80;99.90
40848;DHT22;26570;50.962;5.340;2023-07-29T15:08:24;25.40;99.90
40848;DHT22;26570;50.962;5.340;2023-07-29T15:11:10;25.40;99.90
40848;DHT22;26570;50.962;5.340;2023-07-29T15:13:59;25.10;99.90
40848;DHT22;26570;50.962;5.340;2023-07-29T15:16:51;24.90;99.90
40848;DHT22;26570;50.962;5.340;2023-07-29T15:19:57;24.70;99.90
40848;DHT22;26570;50.962;5.340;2023-07-29T15:22:46;24.50;99.90
40848;DHT22;26570;50.962;5.340;2023-07-29T15:25:31;24.60;99.90
40848;DHT22;26570;50.962;5.340;2023-07-29T15:28:20;24.70;99.90
40848;DHT22;26570;50.962;5.340;2023-07-29T15:31:06;24.90;99.90
40848;DHT22;26570;50.962;5.340;2023-07-29T15:33:55;25.10;99.90
40848;DHT22;26570;50.962;5.340;2023-07-29T15:36:50;25.20;99.90
40848;DHT22;26570;50.962;5.340;2023-07-29T15:39:35;25.30;99.90
40848;DHT22;26570;50.962;5.340;2023-07-29T15:42:21;25.50;99.90
40848;DHT22;26570;50.962;5.340;2023-07-29T15:45:10;25.40;99.90
40848;DHT22;26570;50.962;5.340;2023-07-29T15:47:56;25.70;99.90
40848;DHT22;26570;50.962;5.340;2023-07-29T15:50:42;25.90;99.90
40848;DHT22;26570;50.962;5.340;2023-07-29T15:53:31;25.60;99.90
40848;DHT22;26570;50.962;5.340;2023-07-29T15:56:19;25.40;99.90
40848;DHT22;26570;50.962;5.340;2023-07-29T15:59:06;25.30;99.90
40848;DHT22;26570;50.962;5.340;2023-07-29T16:02:08;25.30;99.90
40848;DHT22;26570;50.962;5.340;2023-07-29T16:04:54;25.30;99.90
40848;DHT22;26570;50.962;5.340;2023-07-29T16:07:43;25.30;99.90
40848;DHT22;26570;50.962;5.340;2023-07-29T16:10:31;25.00;99.90
40848;DHT22;26570;50.962;5.340;2023-07-29T16:13:17;25.10;99.90
40848;DHT22;26570;50.962;5.340;2023-07-29T16:16:04;25.10;99.90
40848;DHT22;26570;50.962;5.340;2023-07-29T16:18:49;24.70;99.90
40848;DHT22;26570;50.962;5.340;2023-07-29T16:21:35;24.40;99.90
40848;DHT22;26570;50.962;5.340;2023-07-29T16:24:21;24.60;99.90
40848;DHT22;26570;50.962;5.340;2023-07-29T16:27:06;24.40;99.90
40848;DHT22;26570;50.962;5.340;2023-07-29T16:29:52;24.40;99.90
40848;DHT22;26570;50.962;5.340;2023-07-29T16:32:40;24.70;99.90
40848;DHT22;26570;50.962;5.340;2023-07-29T16:35:26;24.70;99.90
40848;DHT22;26570;50.962;5.340;2023-07-29T16:38:12;24.70;99.90
40848;DHT22;26570;50.962;5.340;2023-07-29T16:41:20;24.70;99.90
40848;DHT22;26570;50.962;5.340;2023-07-29T16:44:06;24.80;99.90
40848;DHT22;26570;50.962;5.340;2023-07-29T16:46:52;24.90;99.90
40848;DHT22;26570;50.962;5.340;2023-07-29T16:49:37;25.10;99.90
40848;DHT22;26570;50.962;5.340;2023-07-29T16:52:26;25.00;99.90
40848;DHT22;26570;50.962;5.340;2023-07-29T16:55:15;25.00;99.90
40848;DHT22;26570;50.962;5.340;2023-07-29T16:58:01;24.90;99.90
40848;DHT22;26570;50.962;5.340;2023-07-29T17:00:47;25.10;99.90
40848;DHT22;26570;50.962;5.340;2023-07-29T17:03:33;25.00;99.90
40848;DHT22;26570;50.962;5.340;2023-07-29T17:06:22;25.00;99.90
40848;DHT22;26570;50.962;5.340;2023-07-29T17:09:07;25.10;99.90
40848;DHT22;26570;50.962;5.340;2023-07-29T17:11:56;25.10;99.90
40848;DHT22;26570;50.962;5.340;2023-07-29T17:15:03;25.20;99.90
40848;DHT22;26570;50.962;5.340;2023-07-29T17:18:10;25.30;99.90
40848;DHT22;26570;50.962;5.340;2023-07-29T17:21:18;25.30;99.90
40848;DHT22;26570;50.962;5.340;2023-07-29T17:24:07;25.30;99.90
40848;DHT22;26570;50.962;5.340;2023-07-29T17:26:56;25.00;99.90
40848;DHT22;26570;50.962;5.340;2023-07-29T17:30:02;25.10;99.90
40848;DHT22;26570;50.962;5.340;2023-07-29T17:33:09;25.00;99.90
40848;DHT22;26570;50.962;5.340;2023-07-29T17:36:01;25.00;99.90
40848;DHT22;26570;50.962;5.340;2023-07-29T17:38:47;25.10;99.90
40848;DHT22;26570;50.962;5.340;2023-07-29T17:41:32;25.10;99.90
40848;DHT22;26570;50.962;5.340;2023-07-29T17:44:18;24.80;99.90
40848;DHT22;26570;50.962;5.340;2023-07-29T17:47:04;24.50;99.90
40848;DHT22;26570;50.962;5.340;2023-07-29T17:49:53;24.50;99.90
40848;DHT22;26570;50.962;5.340;2023-07-29T17:52:38;24.40;99.90
40848;DHT22;26570;50.962;5.340;2023-07-29T17:55:39;24.60;99.90
40848;DHT22;26570;50.962;5.340;2023-07-29T17:58:29;24.40;99.90
40848;DHT22;26570;50.962;5.340;2023-07-29T18:01:36;24.10;99.90
40848;DHT22;26570;50.962;5.340;2023-07-29T18:04:26;23.80;99.90
40848;DHT22;26570;50.962;5.340;2023-07-29T18:07:14;23.60;99.90
40848;DHT22;26570;50.962;5.340;2023-07-29T18:10:18;23.50;99.90
40848;DHT22;26570;50.962;5.340;2023-07-29T18:13:03;23.40;99.90
40848;DHT22;26570;50.962;5.340;2023-07-29T18:15:52;23.50;99.90
40848;DHT22;26570;50.962;5.340;2023-07-29T18:18:39;23.20;99.90
40848;DHT22;26570;50.962;5.340;2023-07-29T18:21:25;23.30;99.90